Accueil
METAR-TAF:

METAR-TAF

Aéroports :

Aéroport de Phú Quốc

Phú Quốc, Viêtnam

latitude: 10-10-18N, longitude: 103-59-28E, altitude: 11 m

Observation

Le bulletin a été fait il y a 30 minutes, à 23:00 UTC
Vent 2 kt de est/nord-est
Température 22°C
Humidité 94%
Pression 1010 hPa
Visibilité 10 km ou plus
Quelques nuages à une hauteur de 1500 ft

METAR: VVPQ 252300Z 07002KT 9999 FEW015 22/21 Q1010 NOSIG

Heure: 06:30 (23:30 UTC)

Prévision

Le bulletin a été fait il y a 6 heures et 30 minutes, à 17:00 UTC
Prévision valable du 25 à 18 UTC au 26 à 18 UTC
Vent 2 kt de direction variable
Visibilité 10 km ou plus
Nuages épars à une hauteur de 1500 ft
Evoluant progressivement
du 26 à 00 UTC au 26 à 01 UTC
Vent 10 kt de est/sud-est

TAF: VVPQ 251700Z 2518/2618 VRB02KT 9999 SCT015 BECMG 2600/2601 11010KT

Observations et prévisions météorologiques de plus de 4000 aéroports (messages METAR et TAF).

Les stations disponibles sont représentées par des disques jaunes et rouges sur la carte.

Passer la souris dessus pour voir le nom de la station.

Cliquer dessus pour voir les observations et prévisions météorologiques.

Pour changer de carte: cliquez sur les boutons verts avec une croix noire pour zoomer, sur le bouton vert avec un tiret pour effectuer un zoom arrière, ou sur les flèches vertes pour les cartes adjacentes.


METAR-TAF: